Seward, North Carolina
Current Conditions -  °F | °C
As of 9:54 PM on Monday 20 Oct 2014 (Local Time) from KINT Reporting Station
Few Clouds Few Clouds  
Wind Chill: 62°   Ceiling: Unl
Heat Index: 62°   Visibility: 10mi
Dew Point: 47°   Wind: 5mph
Humidity: 58%   Direction: 190°S
Pressure: 29.99"   Gusts: NA
Location:  36.1722°N, 80.3739°W
Report Text: KINT 210154Z AUTO 19004KT 10SM FEW120 17/08 A2999 RMK AO2 SLP153 T01670083
Loading
Personal Weather Stations






























Interactive Weather Map
Tropical Storm Tracking
New forecast layout! Learn more

10-Day Weather Forecast

Advertisements
Track Severe Weather on mobile